| time (UTC) | temp F | wind direction | speed MPH | gust MPH | rain 1hr in | rain 24hr in | rain mn in | humidity % | barometer mb |
| 20260508054254 | 56 | 86 | 1.0 | 5.0 | 0.00 | 0.00 | 0.00 | 22 | 1022.1 |
| 20260508053751 | 56 | 96 | 3.0 | 5.0 | 0.00 | 0.00 | 0.00 | 22 | 1022.3 |
| 20260508053248 | 56 | 84 | 1.0 | 5.0 | 0.00 | 0.00 | 0.00 | 22 | 1022.2 |
| 20260508052745 | 56 | 96 | 2.0 | 3.0 | 0.00 | 0.00 | 0.00 | 22 | 1022.2 |
| 20260508052243 | 56 | 94 | 2.0 | 5.0 | 0.00 | 0.00 | 0.00 | 22 | 1022.2 |
| 20260508051738 | 56 | 91 | 1.0 | 3.0 | 0.00 | 0.00 | 0.00 | 23 | 1022.2 |
| 20260508051234 | 56 | 74 | 3.0 | 3.0 | 0.00 | 0.00 | 0.00 | 23 | 1022.3 |
| 20260508050731 | 56 | 97 | 2.0 | 3.0 | 0.00 | 0.00 | 0.00 | 24 | 1022.3 |
| 20260508050228 | 57 | 71 | 0.0 | 2.0 | 0.00 | 0.00 | 0.00 | 23 | 1022.5 |
| 20260508045723 | 57 | 67 | 2.0 | 3.0 | 0.00 | 0.00 | 0.00 | 24 | 1022.3 |
| 20260508045222 | 57 | 94 | 3.0 | 5.0 | 0.00 | 0.00 | 0.00 | 23 | 1022.2 |
| 20260508044719 | 57 | 72 | 1.0 | 3.0 | 0.00 | 0.00 | 0.00 | 23 | 1022.1 |
| 20260508044215 | 57 | 95 | 3.0 | 3.0 | 0.00 | 0.00 | 0.00 | 23 | 1022.1 |
| 20260508043711 | 58 | 56 | 0.0 | 2.0 | 0.00 | 0.00 | 0.00 | 24 | 1022.3 |
| 20260508043209 | 58 | 86 | 2.0 | 3.0 | 0.00 | 0.00 | 0.00 | 22 | 1022.1 |
| 20260508042705 | 58 | 88 | 2.0 | 3.0 | 0.00 | 0.00 | 0.00 | 22 | 1022.1 |
| 20260508042203 | 58 | 67 | 0.0 | 5.0 | 0.00 | 0.00 | 0.00 | 23 | 1022.1 |
| 20260508041659 | 58 | 82 | 0.0 | 3.0 | 0.00 | 0.00 | 0.00 | 24 | 1022.5 |
| 20260508041156 | 58 | 87 | 2.0 | 3.0 | 0.00 | 0.00 | 0.00 | 24 | 1022.1 |
| 20260508040653 | 59 | 82 | 2.0 | 3.0 | 0.00 | 0.00 | 0.00 | 24 | 1022.3 |
| 20260508040150 | 59 | 100 | 3.0 | 3.0 | 0.00 | 0.00 | 0.00 | 23 | 1022.3 |
| 20260508035647 | 59 | 89 | 2.0 | 3.0 | 0.00 | 0.00 | 0.00 | 23 | 1022.2 |
| 20260508035145 | 60 | 105 | 2.0 | 3.0 | 0.00 | 0.00 | 0.00 | 23 | 1022.1 |
| 20260508034641 | 60 | 91 | 2.0 | 5.0 | 0.00 | 0.00 | 0.00 | 22 | 1022.1 |
| 20260508034138 | 61 | 103 | 2.0 | 3.0 | 0.00 | 0.00 | 0.00 | 22 | 1021.9 |
| 20260508033636 | 60 | 72 | 2.0 | 3.0 | 0.00 | 0.00 | 0.00 | 22 | 1021.7 |
| 20260508033134 | 61 | 71 | 0.0 | 3.0 | 0.00 | 0.00 | 0.00 | 23 | 1021.7 |
| 20260508032630 | 61 | 85 | 1.0 | 2.0 | 0.00 | 0.00 | 0.00 | 22 | 1021.5 |
| 20260508032128 | 61 | 74 | 0.0 | 5.0 | 0.00 | 0.00 | 0.00 | 22 | 1021.4 |
| 20260508031625 | 62 | 81 | 0.0 | 2.0 | 0.00 | 0.00 | 0.00 | 22 | 1021.2 |
| 20260508031120 | 62 | 79 | 0.0 | 3.0 | 0.00 | 0.00 | 0.00 | 22 | 1021.4 |
| 20260508030617 | 63 | 68 | 2.0 | 2.0 | 0.00 | 0.00 | 0.00 | 21 | 1021.2 |
| 20260508030115 | 63 | 67 | 0.0 | 2.0 | 0.00 | 0.00 | 0.00 | 21 | 1021.4 |
| 20260508025611 | 64 | 68 | 1.0 | 2.0 | 0.00 | 0.00 | 0.00 | 21 | 1021.2 |
| 20260508025108 | 64 | 57 | 0.0 | 2.0 | 0.00 | 0.00 | 0.00 | 20 | 1021.2 |
| 20260508024604 | 64 | 19 | 0.0 | 5.0 | 0.00 | 0.00 | 0.00 | 21 | 1021.0 |
| 20260508024101 | 64 | 81 | 0.0 | 2.0 | 0.00 | 0.00 | 0.00 | 22 | 1020.9 |
| 20260508023558 | 65 | 74 | 0.0 | 0.0 | 0.00 | 0.00 | 0.00 | 19 | 1021.0 |
| 20260508023055 | 65 | 99 | 0.0 | 0.0 | 0.00 | 0.00 | 0.00 | 18 | 1020.9 |
| 20260508022551 | 66 | 133 | 0.0 | 2.0 | 0.00 | 0.00 | 0.00 | 18 | 1020.7 |
| 20260508022048 | 66 | 95 | 0.0 | 0.0 | 0.00 | 0.00 | 0.00 | 18 | 1020.8 |
| 20260508021544 | 67 | 95 | 0.0 | 0.0 | 0.00 | 0.00 | 0.00 | 17 | 1020.6 |
| 20260508021040 | 68 | 98 | 0.0 | 0.0 | 0.00 | 0.00 | 0.00 | 17 | 1020.6 |
| 20260508020537 | 69 | 107 | 0.0 | 0.0 | 0.00 | 0.00 | 0.00 | 16 | 1020.6 |
| 20260508020035 | 70 | 110 | 0.0 | 2.0 | 0.00 | 0.00 | 0.00 | 16 | 1020.5 |
| 20260508015532 | 70 | 226 | 1.0 | 5.0 | 0.00 | 0.00 | 0.00 | 15 | 1020.5 |
| 20260508015029 | 71 | 195 | 1.0 | 3.0 | 0.00 | 0.00 | 0.00 | 15 | 1020.3 |
| 20260508014526 | 72 | 133 | 4.0 | 6.0 | 0.00 | 0.00 | 0.00 | 14 | 1020.3 |
| 20260508014022 | 72 | 174 | 0.0 | 2.0 | 0.00 | 0.00 | 0.00 | 13 | 1020.3 |
| 20260508013518 | 73 | 130 | 0.0 | 3.0 | 0.00 | 0.00 | 0.00 | 14 | 1020.3 |
| 20260508013016 | 73 | 128 | 1.0 | 2.0 | 0.00 | 0.00 | 0.00 | 13 | 1020.0 |
| 20260508012513 | 73 | 173 | 3.0 | 6.0 | 0.00 | 0.00 | 0.00 | 13 | 1020.0 |
| 20260508012010 | 74 | 122 | 1.0 | 2.0 | 0.00 | 0.00 | 0.00 | 13 | 1020.2 |
| 20260508011508 | 74 | 149 | 1.0 | 5.0 | 0.00 | 0.00 | 0.00 | 13 | 1020.0 |
| 20260508011005 | 75 | 152 | 5.0 | 6.0 | 0.00 | 0.00 | 0.00 | 12 | 1019.9 |
| 20260508010502 | 75 | 174 | 1.0 | 3.0 | 0.00 | 0.00 | 0.00 | 12 | 1020.1 |
| 20260508005959 | 75 | 164 | 1.0 | 3.0 | 0.00 | 0.00 | 0.00 | 12 | 1020.0 |
| 20260508005456 | 75 | 108 | 0.0 | 2.0 | 0.00 | 0.00 | 0.00 | 12 | 1020.0 |
| 20260508004953 | 75 | 149 | 2.0 | 3.0 | 0.00 | 0.00 | 0.00 | 12 | 1020.1 |
| 20260508004448 | 75 | 55 | 0.0 | 3.0 | 0.00 | 0.00 | 0.00 | 12 | 1019.7 |
| 20260508003945 | 75 | 212 | 2.0 | 6.0 | 0.00 | 0.00 | 0.00 | 12 | 1019.9 |
| 20260508003442 | 76 | 129 | 3.0 | 5.0 | 0.00 | 0.00 | 0.00 | 11 | 1020.1 |
| 20260508002939 | 76 | 241 | 4.0 | 5.0 | 0.00 | 0.00 | 0.00 | 11 | 1020.0 |
| 20260508002436 | 75 | 196 | 4.0 | 5.0 | 0.00 | 0.00 | 0.00 | 11 | 1020.1 |
| 20260508001932 | 75 | 163 | 3.0 | 8.0 | 0.00 | 0.00 | 0.00 | 11 | 1019.9 |
| 20260508001428 | 75 | 188 | 0.0 | 3.0 | 0.00 | 0.00 | 0.00 | 11 | 1020.0 |
| 20260508000925 | 76 | 171 | 3.0 | 3.0 | 0.00 | 0.00 | 0.00 | 11 | 1020.1 |
| 20260508000421 | 75 | 180 | 0.0 | 3.0 | 0.00 | 0.00 | 0.00 | 12 | 1020.2 |
| 20260507235918 | 75 | 236 | 4.0 | 10.0 | 0.00 | 0.00 | 0.00 | 11 | 1020.3 |
| 20260507235415 | 76 | 252 | 4.0 | 10.0 | 0.00 | 0.00 | 0.00 | 11 | 1020.0 |
| 20260507234912 | 76 | 161 | 3.0 | 10.0 | 0.00 | 0.00 | 0.00 | 12 | 1020.1 |
| 20260507234409 | 76 | 152 | 0.0 | 3.0 | 0.00 | 0.00 | 0.00 | 12 | 1020.1 |
| 20260507233905 | 77 | 171 | 1.0 | 5.0 | 0.00 | 0.00 | 0.00 | 11 | 1020.5 |
| 20260507233402 | 78 | 19 | 0.0 | 3.0 | 0.00 | 0.00 | 0.00 | 10 | 1020.5 |
| 20260507232901 | 76 | 296 | 3.0 | 5.0 | 0.00 | 0.00 | 0.00 | 10 | 1020.5 |
| 20260507232357 | 76 | 327 | 4.0 | 6.0 | 0.00 | 0.00 | 0.00 | 11 | 1020.3 |
| 20260507231854 | 75 | 233 | 1.0 | 3.0 | 0.00 | 0.00 | 0.00 | 11 | 1020.5 |
| 20260507231350 | 76 | 125 | 1.0 | 3.0 | 0.00 | 0.00 | 0.00 | 11 | 1020.5 |
| 20260507230847 | 76 | 328 | 4.0 | 8.0 | 0.00 | 0.00 | 0.00 | 11 | 1020.7 |
| 20260507230344 | 75 | 201 | 2.0 | 3.0 | 0.00 | 0.00 | 0.00 | 11 | 1020.6 |
| 20260507225844 | 76 | 200 | 5.0 | 8.0 | 0.00 | 0.00 | 0.00 | 11 | 1020.7 |
| 20260507225340 | 75 | 40 | 0.0 | 3.0 | 0.00 | 0.00 | 0.00 | 12 | 1020.8 |
| 20260507224837 | 76 | 198 | 0.0 | 3.0 | 0.00 | 0.00 | 0.00 | 11 | 1020.9 |
| 20260507224333 | 75 | 120 | 6.0 | 8.0 | 0.00 | 0.00 | 0.00 | 12 | 1020.8 |
| 20260507223829 | 76 | 172 | 3.0 | 8.0 | 0.00 | 0.00 | 0.00 | 12 | 1020.7 |
| 20260507223326 | 76 | 200 | 3.0 | 11.0 | 0.00 | 0.00 | 0.00 | 12 | 1020.9 |
| 20260507222823 | 75 | 228 | 1.0 | 3.0 | 0.00 | 0.00 | 0.00 | 12 | 1020.9 |
| 20260507222320 | 75 | 213 | 8.0 | 11.0 | 0.00 | 0.00 | 0.00 | 12 | 1021.2 |
| 20260507221817 | 77 | 252 | 5.0 | 8.0 | 0.00 | 0.00 | 0.00 | 12 | 1021.0 |
| 20260507221313 | 77 | 332 | 2.0 | 5.0 | 0.00 | 0.00 | 0.00 | 13 | 1021.3 |
| 20260507220809 | 74 | 16 | 0.0 | 5.0 | 0.00 | 0.00 | 0.00 | 13 | 1021.2 |
| 20260507220308 | 74 | 20 | 0.0 | 6.0 | 0.00 | 0.00 | 0.00 | 13 | 1021.5 |
| 20260507215803 | 73 | 342 | 1.0 | 5.0 | 0.00 | 0.00 | 0.00 | 14 | 1021.4 |
| 20260507215301 | 75 | 346 | 4.0 | 6.0 | 0.00 | 0.00 | 0.00 | 13 | 1021.5 |
| 20260507214758 | 75 | 245 | 3.0 | 6.0 | 0.00 | 0.00 | 0.00 | 12 | 1021.7 |
| 20260507214255 | 75 | 181 | 6.0 | 8.0 | 0.00 | 0.00 | 0.00 | 14 | 1021.7 |
| 20260507213750 | 73 | 156 | 0.0 | 5.0 | 0.00 | 0.00 | 0.00 | 13 | 1021.7 |
| 20260507213248 | 72 | 272 | 6.0 | 6.0 | 0.00 | 0.00 | 0.00 | 13 | 1022.0 |
| 20260507212744 | 75 | 209 | 5.0 | 11.0 | 0.00 | 0.00 | 0.00 | 13 | 1022.1 |
| 20260507212240 | 73 | 341 | 0.0 | 6.0 | 0.00 | 0.00 | 0.00 | 14 | 1022.2 |
| 20260507211737 | 73 | 221 | 5.0 | 10.0 | 0.00 | 0.00 | 0.00 | 13 | 1022.2 |
| 20260507211233 | 73 | 18 | 5.0 | 6.0 | 0.00 | 0.00 | 0.00 | 14 | 1022.6 |
| 20260507210730 | 74 | 248 | 4.0 | 8.0 | 0.00 | 0.00 | 0.00 | 13 | 1022.7 |
| 20260507210227 | 72 | 300 | 1.0 | 5.0 | 0.00 | 0.00 | 0.00 | 15 | 1022.7 |
| 20260507205724 | 70 | 245 | 3.0 | 5.0 | 0.00 | 0.00 | 0.00 | 14 | 1022.8 |
| 20260507205221 | 71 | 332 | 0.0 | 6.0 | 0.00 | 0.00 | 0.00 | 16 | 1023.0 |
| 20260507204717 | 70 | 84 | 0.0 | 3.0 | 0.00 | 0.00 | 0.00 | 16 | 1023.0 |
| 20260507204215 | 71 | 321 | 3.0 | 6.0 | 0.00 | 0.00 | 0.00 | 16 | 1023.3 |
| 20260507203712 | 70 | 321 | 3.0 | 8.0 | 0.00 | 0.00 | 0.00 | 15 | 1023.2 |
| 20260507203210 | 70 | 314 | 6.0 | 10.0 | 0.00 | 0.00 | 0.00 | 16 | 1023.3 |
| 20260507202705 | 71 | 269 | 1.0 | 6.0 | 0.00 | 0.00 | 0.00 | 17 | 1023.4 |
| 20260507202201 | 71 | 203 | 1.0 | 5.0 | 0.00 | 0.00 | 0.00 | 17 | 1023.5 |
| 20260507201656 | 69 | 67 | 1.0 | 3.0 | 0.00 | 0.00 | 0.00 | 17 | 1023.5 |
| 20260507201154 | 70 | 333 | 2.0 | 5.0 | 0.00 | 0.00 | 0.00 | 17 | 1023.4 |
| 20260507200650 | 70 | 328 | 5.0 | 8.0 | 0.00 | 0.00 | 0.00 | 16 | 1023.8 |
| 20260507200146 | 70 | 233 | 4.0 | 13.0 | 0.00 | 0.00 | 0.00 | 17 | 1023.6 |
| 20260507195643 | 68 | 67 | 3.0 | 5.0 | 0.00 | 0.00 | 0.00 | 17 | 1023.8 |
| 20260507195140 | 69 | 341 | 3.0 | 6.0 | 0.00 | 0.00 | 0.00 | 18 | 1023.8 |
| 20260507194637 | 68 | 277 | 4.0 | 10.0 | 0.00 | 0.00 | 0.00 | 18 | 1023.9 |
| 20260507194132 | 68 | 185 | 3.0 | 3.0 | 0.00 | 0.00 | 0.00 | 16 | 1023.9 |
| 20260507193629 | 69 | 9 | 2.0 | 6.0 | 0.00 | 0.00 | 0.00 | 18 | 1024.2 |
| 20260507193127 | 68 | 104 | 1.0 | 8.0 | 0.00 | 0.00 | 0.00 | 18 | 1024.1 |
| 20260507192622 | 68 | 350 | 2.0 | 5.0 | 0.00 | 0.00 | 0.00 | 18 | 1024.2 |
| 20260507192120 | 68 | 4 | 4.0 | 6.0 | 0.00 | 0.00 | 0.00 | 17 | 1024.3 |
| 20260507191615 | 68 | 299 | 0.0 | 2.0 | 0.00 | 0.00 | 0.00 | 20 | 1024.3 |
| 20260507191112 | 66 | 41 | 0.0 | 2.0 | 0.00 | 0.00 | 0.00 | 21 | 1024.5 |
| 20260507190609 | 66 | 285 | 1.0 | 3.0 | 0.00 | 0.00 | 0.00 | 21 | 1024.7 |
| 20260507190108 | 66 | 2 | 1.0 | 5.0 | 0.00 | 0.00 | 0.00 | 21 | 1024.6 |
| 20260507185606 | 65 | 280 | 3.0 | 5.0 | 0.00 | 0.00 | 0.00 | 22 | 1024.9 |
| 20260507185102 | 64 | 261 | 4.0 | 11.0 | 0.00 | 0.00 | 0.00 | 22 | 1024.9 |
| 20260507184601 | 64 | 284 | 4.0 | 10.0 | 0.00 | 0.00 | 0.00 | 23 | 1025.1 |
| 20260507184058 | 65 | 169 | 5.0 | 6.0 | 0.00 | 0.00 | 0.00 | 22 | 1024.9 |
| 20260507183554 | 64 | 252 | 2.0 | 8.0 | 0.00 | 0.00 | 0.00 | 23 | 1025.2 |
| 20260507183051 | 62 | 18 | 0.0 | 5.0 | 0.00 | 0.00 | 0.00 | 25 | 1025.3 |
| 20260507182547 | 63 | 97 | 1.0 | 8.0 | 0.00 | 0.00 | 0.00 | 24 | 1025.2 |
| 20260507182043 | 64 | 320 | 3.0 | 8.0 | 0.00 | 0.00 | 0.00 | 23 | 1025.6 |
| 20260507181541 | 65 | 290 | 5.0 | 6.0 | 0.00 | 0.00 | 0.00 | 22 | 1025.6 |
| 20260507181037 | 63 | 295 | 5.0 | 5.0 | 0.00 | 0.00 | 0.00 | 23 | 1025.6 |
| 20260507180533 | 62 | 344 | 0.0 | 3.0 | 0.00 | 0.00 | 0.00 | 24 | 1025.5 |
| 20260507180030 | 63 | 257 | 5.0 | 8.0 | 0.00 | 0.00 | 0.00 | 23 | 1025.5 |
| 20260507175526 | 62 | 274 | 3.0 | 8.0 | 0.00 | 0.00 | 0.00 | 25 | 1025.9 |
| 20260507175024 | 61 | 307 | 3.0 | 6.0 | 0.00 | 0.00 | 0.00 | 25 | 1026.0 |
| 20260507174521 | 62 | 182 | 5.0 | 10.0 | 0.00 | 0.00 | 0.00 | 24 | 1025.8 |
| 20260507174019 | 61 | 14 | 6.0 | 8.0 | 0.00 | 0.00 | 0.00 | 24 | 1025.9 |
| 20260507173515 | 61 | 6 | 4.0 | 5.0 | 0.00 | 0.00 | 0.00 | 25 | 1025.9 |
| 20260507173013 | 62 | 311 | 6.0 | 10.0 | 0.00 | 0.00 | 0.00 | 25 | 1025.9 |
| 20260507172509 | 62 | 8 | 6.0 | 6.0 | 0.00 | 0.00 | 0.00 | 25 | 1026.1 |
| 20260507172005 | 62 | 323 | 2.0 | 5.0 | 0.00 | 0.00 | 0.00 | 26 | 1026.1 |
| 20260507171501 | 61 | 149 | 1.0 | 6.0 | 0.00 | 0.00 | 0.00 | 26 | 1026.3 |
| 20260507170959 | 61 | 351 | 4.0 | 6.0 | 0.00 | 0.00 | 0.00 | 29 | 1026.3 |
| 20260507170455 | 60 | 326 | 4.0 | 8.0 | 0.00 | 0.00 | 0.00 | 32 | 1026.3 |
| 20260507165951 | 60 | 295 | 5.0 | 10.0 | 0.00 | 0.00 | 0.00 | 32 | 1026.5 |
| 20260507165447 | 60 | 197 | 0.0 | 3.0 | 0.00 | 0.00 | 0.00 | 31 | 1026.5 |
| 20260507164943 | 58 | 22 | 2.0 | 3.0 | 0.00 | 0.00 | 0.00 | 34 | 1026.5 |
| 20260507164441 | 59 | 355 | 1.0 | 5.0 | 0.00 | 0.00 | 0.00 | 35 | 1026.6 |
| 20260507163937 | 59 | 336 | 2.0 | 5.0 | 0.00 | 0.00 | 0.00 | 35 | 1026.7 |
| 20260507163435 | 57 | 5 | 2.0 | 3.0 | 0.00 | 0.00 | 0.00 | 37 | 1026.8 |
| 20260507162932 | 58 | 1 | 2.0 | 6.0 | 0.00 | 0.00 | 0.00 | 35 | 1026.8 |
| 20260507162427 | 58 | 222 | 3.0 | 5.0 | 0.00 | 0.00 | 0.00 | 33 | 1026.6 |
| 20260507161925 | 57 | 90 | 1.0 | 3.0 | 0.00 | 0.00 | 0.00 | 35 | 1026.7 |
| 20260507161420 | 55 | 36 | 1.0 | 5.0 | 0.00 | 0.00 | 0.00 | 38 | 1026.7 |
| 20260507160917 | 57 | 253 | 4.0 | 6.0 | 0.00 | 0.00 | 0.00 | 37 | 1026.8 |
| 20260507160413 | 57 | 339 | 2.0 | 3.0 | 0.00 | 0.00 | 0.00 | 36 | 1026.9 |
| 20260507155909 | 55 | 1 | 3.0 | 5.0 | 0.00 | 0.00 | 0.00 | 35 | 1027.1 |
| 20260507155405 | 55 | 30 | 1.0 | 5.0 | 0.00 | 0.00 | 0.00 | 39 | 1027.1 |
| 20260507154903 | 55 | 282 | 2.0 | 5.0 | 0.00 | 0.00 | 0.00 | 36 | 1026.9 |
| 20260507154359 | 54 | 16 | 1.0 | 3.0 | 0.00 | 0.00 | 0.00 | 39 | 1027.1 |
| 20260507153857 | 54 | 313 | 3.0 | 5.0 | 0.00 | 0.00 | 0.00 | 41 | 1026.9 |
| 20260507153353 | 53 | 314 | 4.0 | 5.0 | 0.00 | 0.00 | 0.00 | 43 | 1026.9 |
| 20260507152849 | 52 | 194 | 2.0 | 5.0 | 0.00 | 0.00 | 0.00 | 43 | 1027.2 |
| 20260507152346 | 52 | 21 | 2.0 | 5.0 | 0.00 | 0.00 | 0.00 | 43 | 1027.1 |
| 20260507151842 | 52 | 28 | 3.0 | 5.0 | 0.00 | 0.00 | 0.00 | 44 | 1027.2 |
| 20260507151338 | 51 | 30 | 1.0 | 2.0 | 0.00 | 0.00 | 0.00 | 46 | 1027.2 |
| 20260507150836 | 51 | 28 | 1.0 | 3.0 | 0.00 | 0.00 | 0.00 | 46 | 1027.2 |
| 20260507150332 | 50 | 1 | 0.0 | 2.0 | 0.00 | 0.00 | 0.00 | 48 | 1027.4 |
| 20260507145828 | 49 | 47 | 1.0 | 5.0 | 0.00 | 0.00 | 0.00 | 52 | 1027.2 |
| 20260507145320 | 48 | 1 | 4.0 | 5.0 | 0.00 | 0.00 | 0.00 | 53 | 1027.5 |
| 20260507144817 | 48 | 350 | 2.0 | 5.0 | 0.00 | 0.00 | 0.00 | 55 | 1027.3 |
| 20260507144314 | 48 | 28 | 2.0 | 6.0 | 0.00 | 0.00 | 0.00 | 56 | 1027.4 |
| 20260507143810 | 48 | 54 | 1.0 | 3.0 | 0.00 | 0.00 | 0.00 | 58 | 1027.4 |
| 20260507143307 | 47 | 28 | 3.0 | 5.0 | 0.00 | 0.00 | 0.00 | 59 | 1027.4 |
| 20260507142803 | 46 | 13 | 2.0 | 8.0 | 0.00 | 0.00 | 0.00 | 60 | 1027.4 |
| 20260507142259 | 46 | 10 | 2.0 | 5.0 | 0.00 | 0.00 | 0.00 | 61 | 1027.5 |
| 20260507141756 | 45 | 19 | 2.0 | 3.0 | 0.00 | 0.00 | 0.00 | 62 | 1027.4 |
| 20260507141254 | 45 | 13 | 2.0 | 5.0 | 0.00 | 0.00 | 0.00 | 63 | 1027.4 |
| 20260507140750 | 44 | 349 | 4.0 | 6.0 | 0.00 | 0.00 | 0.00 | 64 | 1027.4 |
| 20260507140248 | 44 | 340 | 4.0 | 5.0 | 0.00 | 0.00 | 0.00 | 65 | 1027.5 |
| 20260507135744 | 43 | 19 | 1.0 | 5.0 | 0.00 | 0.00 | 0.00 | 67 | 1027.4 |
| 20260507135242 | 42 | 31 | 1.0 | 6.0 | 0.00 | 0.00 | 0.00 | 69 | 1027.5 |
| 20260507134738 | 41 | 11 | 2.0 | 3.0 | 0.00 | 0.00 | 0.00 | 69 | 1027.4 |
| 20260507134235 | 41 | 16 | 0.0 | 2.0 | 0.00 | 0.00 | 0.00 | 69 | 1027.3 |
| 20260507133730 | 40 | 22 | 0.0 | 2.0 | 0.00 | 0.00 | 0.00 | 70 | 1027.4 |
| 20260507133227 | 39 | 30 | 3.0 | 3.0 | 0.00 | 0.00 | 0.00 | 70 | 1027.2 |
| 20260507132725 | 39 | 16 | 4.0 | 5.0 | 0.00 | 0.00 | 0.00 | 70 | 1027.3 |
| 20260507132221 | 38 | 25 | 2.0 | 5.0 | 0.00 | 0.00 | 0.00 | 71 | 1026.9 |
| 20260507131717 | 38 | 18 | 0.0 | 2.0 | 0.00 | 0.00 | 0.00 | 74 | 1027.1 |
| 20260507131215 | 38 | 9 | 2.0 | 3.0 | 0.00 | 0.00 | 0.00 | 75 | 1027.1 |
| 20260507130711 | 38 | 44 | 0.0 | 2.0 | 0.00 | 0.00 | 0.00 | 75 | 1027.1 |
| 20260507130209 | 37 | 15 | 1.0 | 3.0 | 0.00 | 0.00 | 0.00 | 75 | 1026.9 |
| 20260507125708 | 37 | 6 | 1.0 | 5.0 | 0.00 | 0.00 | 0.00 | 76 | 1027.1 |
| 20260507125205 | 36 | 12 | 0.0 | 2.0 | 0.00 | 0.00 | 0.00 | 74 | 1027.2 |
| 20260507124701 | 36 | 14 | 3.0 | 5.0 | 0.00 | 0.00 | 0.00 | 71 | 1026.8 |
| 20260507124159 | 37 | 7 | 2.0 | 3.0 | 0.00 | 0.00 | 0.00 | 70 | 1027.1 |
| 20260507123657 | 37 | 27 | 2.0 | 3.0 | 0.00 | 0.00 | 0.00 | 66 | 1026.9 |
| 20260507123154 | 36 | 12 | 1.0 | 3.0 | 0.00 | 0.00 | 0.00 | 64 | 1026.7 |
| 20260507122649 | 35 | 10 | 1.0 | 2.0 | 0.00 | 0.00 | 0.00 | 66 | 1026.8 |
| 20260507122146 | 35 | 73 | 0.0 | 0.0 | 0.00 | 0.00 | 0.00 | 65 | 1026.7 |
| 20260507121642 | 36 | 81 | 1.0 | 2.0 | 0.00 | 0.00 | 0.00 | 66 | 1026.8 |
| 20260507121137 | 36 | 25 | 0.0 | 0.0 | 0.00 | 0.00 | 0.00 | 68 | 1026.8 |
| 20260507120633 | 36 | 21 | 0.0 | 0.0 | 0.00 | 0.00 | 0.00 | 66 | 1026.6 |
| 20260507120130 | 37 | 22 | 0.0 | 2.0 | 0.00 | 0.00 | 0.00 | 64 | 1026.6 |
| 20260507115627 | 37 | 11 | 2.0 | 2.0 | 0.00 | 0.00 | 0.00 | 61 | 1026.6 |
| 20260507115122 | 37 | 12 | 1.0 | 2.0 | 0.00 | 0.00 | 0.00 | 59 | 1026.8 |
| 20260507114618 | 37 | 42 | 0.0 | 0.0 | 0.00 | 0.00 | 0.00 | 57 | 1026.9 |
| 20260507114116 | 37 | 40 | 0.0 | 0.0 | 0.00 | 0.00 | 0.00 | 56 | 1026.6 |
| 20260507113613 | 37 | 31 | 0.0 | 2.0 | 0.00 | 0.00 | 0.00 | 55 | 1026.7 |
| 20260507113111 | 37 | 25 | 1.0 | 2.0 | 0.00 | 0.00 | 0.00 | 55 | 1026.9 |
| 20260507112609 | 37 | 29 | 1.0 | 2.0 | 0.00 | 0.00 | 0.00 | 53 | 1026.8 |
| 20260507112105 | 37 | 78 | 0.0 | 0.0 | 0.00 | 0.00 | 0.00 | 52 | 1026.7 |
| 20260507111602 | 38 | 81 | 0.0 | 0.0 | 0.00 | 0.00 | 0.00 | 50 | 1026.8 |
| 20260507111059 | 38 | 83 | 2.0 | 3.0 | 0.00 | 0.00 | 0.00 | 50 | 1026.7 |
| 20260507110555 | 38 | 86 | 2.0 | 3.0 | 0.00 | 0.00 | 0.00 | 56 | 1026.8 |
| 20260507110052 | 38 | 60 | 0.0 | 0.0 | 0.00 | 0.00 | 0.00 | 58 | 1026.7 |
| 20260507105548 | 38 | 74 | 0.0 | 0.0 | 0.00 | 0.00 | 0.00 | 56 | 1026.7 |
| 20260507105044 | 39 | 74 | 0.0 | 0.0 | 0.00 | 0.00 | 0.00 | 55 | 1026.7 |
| 20260507104542 | 39 | 77 | 0.0 | 0.0 | 0.00 | 0.00 | 0.00 | 55 | 1026.7 |
| 20260507104038 | 39 | 81 | 0.0 | 2.0 | 0.00 | 0.00 | 0.00 | 51 | 1026.7 |
| 20260507103534 | 39 | 65 | 0.0 | 2.0 | 0.00 | 0.00 | 0.00 | 49 | 1026.9 |
| 20260507103031 | 39 | 79 | 0.0 | 0.0 | 0.00 | 0.00 | 0.00 | 48 | 1026.7 |
| 20260507102528 | 38 | 45 | 0.0 | 0.0 | 0.00 | 0.00 | 0.00 | 49 | 1026.7 |
| 20260507102024 | 39 | 63 | 0.0 | 0.0 | 0.00 | 0.00 | 0.00 | 50 | 1026.8 |
| 20260507101520 | 39 | 56 | 0.0 | 0.0 | 0.00 | 0.00 | 0.00 | 50 | 1026.7 |
| 20260507101016 | 39 | 58 | 0.0 | 2.0 | 0.00 | 0.00 | 0.00 | 49 | 1026.8 |
| 20260507100514 | 39 | 71 | 0.0 | 0.0 | 0.00 | 0.00 | 0.00 | 49 | 1026.7 |
| 20260507100012 | 39 | 91 | 0.0 | 0.0 | 0.00 | 0.00 | 0.00 | 47 | 1026.6 |
| 20260507095509 | 40 | 93 | 0.0 | 0.0 | 0.00 | 0.00 | 0.00 | 48 | 1026.7 |
| 20260507095005 | 40 | 102 | 0.0 | 2.0 | 0.00 | 0.00 | 0.00 | 45 | 1026.6 |
| 20260507094502 | 41 | 76 | 0.0 | 0.0 | 0.00 | 0.00 | 0.00 | 44 | 1026.6 |
| 20260507093959 | 41 | 84 | 0.0 | 0.0 | 0.00 | 0.00 | 0.00 | 44 | 1026.5 |
| 20260507093456 | 41 | 84 | 0.0 | 0.0 | 0.00 | 0.00 | 0.00 | 44 | 1026.6 |
| 20260507092954 | 42 | 95 | 2.0 | 2.0 | 0.00 | 0.00 | 0.00 | 44 | 1026.6 |
| 20260507092450 | 42 | 97 | 0.0 | 0.0 | 0.00 | 0.00 | 0.00 | 44 | 1026.5 |
| 20260507091947 | 42 | 79 | 0.0 | 0.0 | 0.00 | 0.00 | 0.00 | 43 | 1026.5 |
| 20260507091443 | 43 | 77 | 0.0 | 0.0 | 0.00 | 0.00 | 0.00 | 41 | 1026.7 |
| 20260507090940 | 43 | 50 | 0.0 | 0.0 | 0.00 | 0.00 | 0.00 | 43 | 1026.5 |
| 20260507090435 | 43 | 44 | 0.0 | 2.0 | 0.00 | 0.00 | 0.00 | 42 | 1026.7 |
| 20260507085932 | 43 | 22 | 1.0 | 3.0 | 0.00 | 0.00 | 0.00 | 40 | 1026.6 |
| 20260507085429 | 43 | 79 | 0.0 | 2.0 | 0.00 | 0.00 | 0.00 | 41 | 1026.5 |
| 20260507084926 | 43 | 78 | 1.0 | 2.0 | 0.00 | 0.00 | 0.00 | 40 | 1026.5 |
| 20260507084423 | 43 | 22 | 0.0 | 2.0 | 0.00 | 0.00 | 0.00 | 39 | 1026.3 |
| 20260507083920 | 44 | 33 | 0.0 | 2.0 | 0.00 | 0.00 | 0.00 | 39 | 1026.3 |
| 20260507083417 | 44 | 80 | 0.0 | 2.0 | 0.00 | 0.00 | 0.00 | 38 | 1026.3 |
| 20260507082913 | 45 | 88 | 0.0 | 2.0 | 0.00 | 0.00 | 0.00 | 37 | 1026.2 |
| 20260507082409 | 45 | 72 | 0.0 | 0.0 | 0.00 | 0.00 | 0.00 | 36 | 1026.2 |
| 20260507081906 | 45 | 46 | 0.0 | 0.0 | 0.00 | 0.00 | 0.00 | 35 | 1026.2 |
| 20260507081402 | 45 | 61 | 0.0 | 2.0 | 0.00 | 0.00 | 0.00 | 35 | 1026.3 |
| 20260507080859 | 45 | 35 | 0.0 | 3.0 | 0.00 | 0.00 | 0.00 | 35 | 1026.5 |
| 20260507080355 | 45 | 53 | 0.0 | 2.0 | 0.00 | 0.00 | 0.00 | 36 | 1026.2 |
| 20260507075851 | 45 | 87 | 0.0 | 3.0 | 0.00 | 0.00 | 0.00 | 36 | 1026.2 |
| 20260507075347 | 45 | 87 | 0.0 | 2.0 | 0.00 | 0.00 | 0.00 | 36 | 1026.3 |
| 20260507074843 | 45 | 87 | 2.0 | 3.0 | 0.00 | 0.00 | 0.00 | 36 | 1026.1 |
| 20260507074341 | 46 | 85 | 0.0 | 2.0 | 0.00 | 0.00 | 0.00 | 37 | 1026.1 |
| 20260507073838 | 46 | 82 | 1.0 | 2.0 | 0.00 | 0.00 | 0.00 | 37 | 1026.0 |
| 20260507073334 | 47 | 65 | 0.0 | 0.0 | 0.00 | 0.00 | 0.00 | 35 | 1026.2 |
| 20260507072832 | 47 | 61 | 0.0 | 2.0 | 0.00 | 0.00 | 0.00 | 34 | 1026.0 |
| 20260507072329 | 48 | 35 | 0.0 | 0.0 | 0.00 | 0.00 | 0.00 | 32 | 1026.1 |
| 20260507071826 | 48 | 17 | 1.0 | 3.0 | 0.00 | 0.00 | 0.00 | 31 | 1026.0 |
| 20260507071324 | 48 | 43 | 2.0 | 3.0 | 0.00 | 0.00 | 0.00 | 32 | 1026.0 |
| 20260507070820 | 47 | 54 | 0.0 | 2.0 | 0.00 | 0.00 | 0.00 | 33 | 1025.9 |
| 20260507070317 | 48 | 71 | 0.0 | 2.0 | 0.00 | 0.00 | 0.00 | 33 | 1026.0 |
| 20260507065814 | 47 | 5 | 4.0 | 5.0 | 0.00 | 0.00 | 0.00 | 32 | 1026.0 |
| 20260507065310 | 48 | 31 | 1.0 | 2.0 | 0.00 | 0.00 | 0.00 | 33 | 1025.9 |
| 20260507064808 | 48 | 68 | 0.0 | 2.0 | 0.00 | 0.00 | 0.00 | 33 | 1025.9 |
| 20260507064306 | 48 | 65 | 0.0 | 2.0 | 0.00 | 0.00 | 0.00 | 33 | 1025.8 |
| 20260507063804 | 48 | 51 | 1.0 | 2.0 | 0.00 | 0.00 | 0.00 | 32 | 1025.8 |
| 20260507063300 | 48 | 74 | 0.0 | 0.0 | 0.00 | 0.00 | 0.00 | 34 | 1026.0 |
| 20260507062757 | 48 | 81 | 0.0 | 2.0 | 0.00 | 0.00 | 0.00 | 34 | 1025.9 |
| 20260507062254 | 49 | 70 | 0.0 | 0.0 | 0.00 | 0.00 | 0.00 | 33 | 1025.5 |
| 20260507061752 | 49 | 49 | 0.0 | 0.0 | 0.00 | 0.00 | 0.00 | 33 | 1025.9 |
| 20260507061250 | 49 | 53 | 0.0 | 2.0 | 0.00 | 0.00 | 0.00 | 32 | 1025.8 |
| 20260507060748 | 49 | 83 | 0.0 | 2.0 | 0.00 | 0.00 | 0.00 | 33 | 1025.6 |
| 20260507060244 | 50 | 81 | 0.0 | 2.0 | 0.00 | 0.00 | 0.00 | 33 | 1025.6 |
| 20260507055741 | 50 | 34 | 0.0 | 2.0 | 0.00 | 0.00 | 0.00 | 33 | 1025.6 |
| 20260507055236 | 50 | 9 | 2.0 | 3.0 | 0.00 | 0.00 | 0.00 | 33 | 1025.5 |
| 20260507054733 | 50 | 47 | 0.0 | 3.0 | 0.00 | 0.00 | 0.00 | 34 | 1025.8 |